Gilliam, Missouri
Current Conditions -  °F | °C
As of 11:35 PM on Wednesday 17 Dec 2014 (Local Time) from KVER Reporting Station
Overcast Overcast  
Wind Chill: 28°   Ceiling: 8000
Heat Index: 32°   Visibility: 10mi
Dew Point: 26°   Wind: 5mph
Humidity: 79%   Direction: 60°ENE
Pressure: 30.27"   Gusts: NA
Location:  39.23°N, 93°W
Report Text: KVER 180535Z AUTO 06004KT 10SM OVC080 00/M03 A3027 RMK AO2 T00021031
Loading
Personal Weather Stations






























Interactive Weather Map New forecast layout! Learn more

10-Day Weather Forecast

Advertisements
Track Severe Weather on mobile